Salt Lake City, Utah
Traffic Map
Current Weather Conditions
Salt Lake City, Utah
Broken Clouds
Broken Clouds

Feels Like: -1°
Wind Chill: -1° Ceiling: 13000
Heat Index: Visibility: 10mi
Dew Point: -7° Wind: 10mph
Humidity: 47% Direction: 180° (S)
Pressure: 29.67in Gusts: 0mph
Raw Report DataKSLC 270354Z 18009KT 10SM SCT085 BKN130 03/M07 A2967 RMK AO2 SLP053 T00331072
Traffic Incident Summary
Active as of:
Severity:
Category:
InformationThere was an issue retrieving the traffic information for this location. Please try a different location or try again shortly.
Advertisements
Track Severe Weather on mobile